sensor_id;sensor_type;location;lat;lon;timestamp;P1;durP1;ratioP1;P2;durP2;ratioP2
41903;SDS011;27586;51.124;4.182;2023-02-11T00:01:45;18.23;;;4.78;;
41903;SDS011;27586;51.124;4.182;2023-02-11T00:04:11;12.93;;;5.05;;
41903;SDS011;27586;51.124;4.182;2023-02-11T00:06:37;11.93;;;5.07;;
41903;SDS011;27586;51.124;4.182;2023-02-11T00:09:03;12.40;;;4.75;;
41903;SDS011;27586;51.124;4.182;2023-02-11T00:11:29;6.97;;;4.20;;
41903;SDS011;27586;51.124;4.182;2023-02-11T00:13:56;11.80;;;4.20;;
41903;SDS011;27586;51.124;4.182;2023-02-11T00:16:23;13.25;;;4.88;;
41903;SDS011;27586;51.124;4.182;2023-02-11T00:18:49;10.63;;;4.75;;
41903;SDS011;27586;51.124;4.182;2023-02-11T00:21:18;14.45;;;5.28;;
41903;SDS011;27586;51.124;4.182;2023-02-11T00:23:45;10.68;;;4.80;;
41903;SDS011;27586;51.124;4.182;2023-02-11T00:26:14;10.55;;;4.80;;
41903;SDS011;27586;51.124;4.182;2023-02-11T00:28:45;13.70;;;5.18;;
41903;SDS011;27586;51.124;4.182;2023-02-11T00:31:12;13.38;;;4.50;;
41903;SDS011;27586;51.124;4.182;2023-02-11T00:33:39;12.43;;;4.82;;
41903;SDS011;27586;51.124;4.182;2023-02-11T00:36:05;12.55;;;5.30;;
41903;SDS011;27586;51.124;4.182;2023-02-11T00:38:33;12.02;;;4.68;;
41903;SDS011;27586;51.124;4.182;2023-02-11T00:40:59;15.68;;;4.38;;
41903;SDS011;27586;51.124;4.182;2023-02-11T00:43:24;12.07;;;5.40;;
41903;SDS011;27586;51.124;4.182;2023-02-11T00:45:50;13.23;;;5.15;;
41903;SDS011;27586;51.124;4.182;2023-02-11T00:48:16;13.63;;;5.00;;
41903;SDS011;27586;51.124;4.182;2023-02-11T00:50:41;13.02;;;5.05;;
41903;SDS011;27586;51.124;4.182;2023-02-11T00:53:07;11.80;;;5.28;;
41903;SDS011;27586;51.124;4.182;2023-02-11T00:55:33;9.77;;;5.25;;
41903;SDS011;27586;51.124;4.182;2023-02-11T00:57:59;15.10;;;5.63;;
41903;SDS011;27586;51.124;4.182;2023-02-11T01:00:25;11.88;;;5.47;;
41903;SDS011;27586;51.124;4.182;2023-02-11T01:02:51;10.13;;;4.57;;
41903;SDS011;27586;51.124;4.182;2023-02-11T01:05:17;13.75;;;4.85;;
41903;SDS011;27586;51.124;4.182;2023-02-11T01:07:44;16.23;;;4.90;;
41903;SDS011;27586;51.124;4.182;2023-02-11T01:10:10;11.30;;;4.75;;
41903;SDS011;27586;51.124;4.182;2023-02-11T01:12:35;14.75;;;5.65;;
41903;SDS011;27586;51.124;4.182;2023-02-11T01:15:02;13.70;;;5.38;;
41903;SDS011;27586;51.124;4.182;2023-02-11T01:17:28;13.00;;;5.85;;
41903;SDS011;27586;51.124;4.182;2023-02-11T01:19:54;12.95;;;4.78;;
41903;SDS011;27586;51.124;4.182;2023-02-11T01:22:20;10.93;;;5.10;;
41903;SDS011;27586;51.124;4.182;2023-02-11T01:24:45;10.90;;;5.15;;
41903;SDS011;27586;51.124;4.182;2023-02-11T01:27:11;14.13;;;5.22;;
41903;SDS011;27586;51.124;4.182;2023-02-11T01:29:37;12.20;;;5.40;;
41903;SDS011;27586;51.124;4.182;2023-02-11T01:32:03;13.00;;;5.18;;
41903;SDS011;27586;51.124;4.182;2023-02-11T01:34:28;14.90;;;5.53;;
41903;SDS011;27586;51.124;4.182;2023-02-11T01:36:57;10.57;;;5.28;;
41903;SDS011;27586;51.124;4.182;2023-02-11T01:39:24;11.48;;;5.15;;
41903;SDS011;27586;51.124;4.182;2023-02-11T01:41:50;13.77;;;5.97;;
41903;SDS011;27586;51.124;4.182;2023-02-11T01:44:30;12.77;;;6.10;;
41903;SDS011;27586;51.124;4.182;2023-02-11T01:46:58;12.10;;;6.07;;
41903;SDS011;27586;51.124;4.182;2023-02-11T01:49:31;10.93;;;5.35;;
41903;SDS011;27586;51.124;4.182;2023-02-11T01:54:41;9.65;;;5.50;;
41903;SDS011;27586;51.124;4.182;2023-02-11T01:57:30;12.98;;;5.80;;
41903;SDS011;27586;51.124;4.182;2023-02-11T02:10:56;17.10;;;8.15;;
41903;SDS011;27586;51.124;4.182;2023-02-11T02:13:25;13.52;;;6.40;;
41903;SDS011;27586;51.124;4.182;2023-02-11T02:15:52;10.45;;;6.43;;
41903;SDS011;27586;51.124;4.182;2023-02-11T02:32:43;14.18;;;7.78;;
41903;SDS011;27586;51.124;4.182;2023-02-11T02:38:07;14.95;;;7.13;;
41903;SDS011;27586;51.124;4.182;2023-02-11T02:41:09;15.00;;;7.80;;
41903;SDS011;27586;51.124;4.182;2023-02-11T02:43:39;13.93;;;7.57;;
41903;SDS011;27586;51.124;4.182;2023-02-11T02:48:48;16.20;;;8.05;;
41903;SDS011;27586;51.124;4.182;2023-02-11T03:07:17;14.70;;;7.85;;
41903;SDS011;27586;51.124;4.182;2023-02-11T03:09:59;13.63;;;9.25;;
41903;SDS011;27586;51.124;4.182;2023-02-11T03:12:32;15.48;;;8.75;;
41903;SDS011;27586;51.124;4.182;2023-02-11T03:15:02;15.38;;;8.65;;
41903;SDS011;27586;51.124;4.182;2023-02-11T03:17:29;15.43;;;9.60;;
41903;SDS011;27586;51.124;4.182;2023-02-11T03:19:59;14.32;;;9.02;;
41903;SDS011;27586;51.124;4.182;2023-02-11T03:22:53;14.70;;;9.07;;
41903;SDS011;27586;51.124;4.182;2023-02-11T03:25:14;14.73;;;9.10;;
41903;SDS011;27586;51.124;4.182;2023-02-11T03:27:47;17.02;;;9.70;;
41903;SDS011;27586;51.124;4.182;2023-02-11T03:30:25;15.32;;;9.02;;
41903;SDS011;27586;51.124;4.182;2023-02-11T03:33:33;13.82;;;9.07;;
41903;SDS011;27586;51.124;4.182;2023-02-11T03:36:02;15.60;;;8.80;;
41903;SDS011;27586;51.124;4.182;2023-02-11T03:38:35;16.13;;;8.43;;
41903;SDS011;27586;51.124;4.182;2023-02-11T03:41:07;17.00;;;10.05;;
41903;SDS011;27586;51.124;4.182;2023-02-11T03:43:39;14.73;;;9.98;;
41903;SDS011;27586;51.124;4.182;2023-02-11T03:46:08;17.05;;;9.10;;
41903;SDS011;27586;51.124;4.182;2023-02-11T03:48:37;16.50;;;9.60;;
41903;SDS011;27586;51.124;4.182;2023-02-11T03:51:09;17.98;;;9.50;;
41903;SDS011;27586;51.124;4.182;2023-02-11T03:53:37;13.88;;;8.82;;
41903;SDS011;27586;51.124;4.182;2023-02-11T03:56:05;20.95;;;9.45;;
41903;SDS011;27586;51.124;4.182;2023-02-11T03:58:34;19.20;;;10.18;;
41903;SDS011;27586;51.124;4.182;2023-02-11T04:01:00;15.65;;;9.35;;
41903;SDS011;27586;51.124;4.182;2023-02-11T04:03:27;16.17;;;9.30;;
41903;SDS011;27586;51.124;4.182;2023-02-11T04:05:52;18.48;;;9.43;;
41903;SDS011;27586;51.124;4.182;2023-02-11T04:08:18;15.45;;;10.38;;
41903;SDS011;27586;51.124;4.182;2023-02-11T04:10:44;17.13;;;9.45;;
41903;SDS011;27586;51.124;4.182;2023-02-11T04:13:10;15.30;;;9.90;;
41903;SDS011;27586;51.124;4.182;2023-02-11T04:15:36;16.00;;;11.57;;
41903;SDS011;27586;51.124;4.182;2023-02-11T04:18:02;18.33;;;11.30;;
41903;SDS011;27586;51.124;4.182;2023-02-11T04:20:28;21.25;;;11.27;;
41903;SDS011;27586;51.124;4.182;2023-02-11T04:22:54;15.20;;;10.10;;
41903;SDS011;27586;51.124;4.182;2023-02-11T04:25:20;14.57;;;10.70;;
41903;SDS011;27586;51.124;4.182;2023-02-11T04:27:45;13.20;;;11.00;;
41903;SDS011;27586;51.124;4.182;2023-02-11T04:30:11;16.73;;;10.32;;
41903;SDS011;27586;51.124;4.182;2023-02-11T04:32:37;15.40;;;11.20;;
41903;SDS011;27586;51.124;4.182;2023-02-11T04:35:03;19.55;;;10.10;;
41903;SDS011;27586;51.124;4.182;2023-02-11T04:37:29;18.45;;;9.98;;
41903;SDS011;27586;51.124;4.182;2023-02-11T04:39:55;18.00;;;9.98;;
41903;SDS011;27586;51.124;4.182;2023-02-11T04:42:20;15.18;;;9.77;;
41903;SDS011;27586;51.124;4.182;2023-02-11T04:44:46;13.98;;;9.68;;
41903;SDS011;27586;51.124;4.182;2023-02-11T04:47:12;15.23;;;10.20;;
41903;SDS011;27586;51.124;4.182;2023-02-11T04:49:39;15.55;;;11.55;;
41903;SDS011;27586;51.124;4.182;2023-02-11T04:52:05;14.32;;;10.20;;
41903;SDS011;27586;51.124;4.182;2023-02-11T04:54:31;16.38;;;10.55;;
41903;SDS011;27586;51.124;4.182;2023-02-11T04:56:57;17.13;;;12.38;;
41903;SDS011;27586;51.124;4.182;2023-02-11T04:59:23;15.32;;;10.05;;
41903;SDS011;27586;51.124;4.182;2023-02-11T05:01:49;15.68;;;10.43;;
41903;SDS011;27586;51.124;4.182;2023-02-11T05:04:15;16.58;;;11.23;;
41903;SDS011;27586;51.124;4.182;2023-02-11T05:06:40;18.48;;;11.82;;
41903;SDS011;27586;51.124;4.182;2023-02-11T05:09:06;15.15;;;10.57;;
41903;SDS011;27586;51.124;4.182;2023-02-11T05:11:32;15.65;;;11.90;;
41903;SDS011;27586;51.124;4.182;2023-02-11T05:13:58;16.83;;;11.65;;
41903;SDS011;27586;51.124;4.182;2023-02-11T05:16:23;17.77;;;13.70;;
41903;SDS011;27586;51.124;4.182;2023-02-11T05:18:49;19.35;;;12.98;;
41903;SDS011;27586;51.124;4.182;2023-02-11T05:21:16;19.00;;;14.48;;
41903;SDS011;27586;51.124;4.182;2023-02-11T05:23:43;20.42;;;12.68;;
41903;SDS011;27586;51.124;4.182;2023-02-11T05:26:10;23.50;;;15.88;;
41903;SDS011;27586;51.124;4.182;2023-02-11T05:28:36;20.33;;;15.25;;
41903;SDS011;27586;51.124;4.182;2023-02-11T05:31:02;23.50;;;15.80;;
41903;SDS011;27586;51.124;4.182;2023-02-11T05:33:28;19.15;;;15.15;;
41903;SDS011;27586;51.124;4.182;2023-02-11T05:35:57;22.15;;;14.02;;
41903;SDS011;27586;51.124;4.182;2023-02-11T05:38:24;22.83;;;14.50;;
41903;SDS011;27586;51.124;4.182;2023-02-11T05:40:50;23.90;;;15.15;;
41903;SDS011;27586;51.124;4.182;2023-02-11T05:43:16;22.42;;;14.43;;
41903;SDS011;27586;51.124;4.182;2023-02-11T05:45:41;21.45;;;15.73;;
41903;SDS011;27586;51.124;4.182;2023-02-11T05:48:07;21.42;;;14.13;;
41903;SDS011;27586;51.124;4.182;2023-02-11T05:50:33;22.23;;;15.20;;
41903;SDS011;27586;51.124;4.182;2023-02-11T05:52:58;19.45;;;14.68;;
41903;SDS011;27586;51.124;4.182;2023-02-11T05:55:24;22.85;;;15.88;;
41903;SDS011;27586;51.124;4.182;2023-02-11T05:57:50;20.08;;;15.02;;
41903;SDS011;27586;51.124;4.182;2023-02-11T06:00:15;20.42;;;13.45;;
41903;SDS011;27586;51.124;4.182;2023-02-11T06:02:41;26.10;;;16.30;;
41903;SDS011;27586;51.124;4.182;2023-02-11T06:05:07;23.60;;;15.63;;
41903;SDS011;27586;51.124;4.182;2023-02-11T06:07:33;24.98;;;14.68;;
41903;SDS011;27586;51.124;4.182;2023-02-11T06:09:59;23.27;;;15.30;;
41903;SDS011;27586;51.124;4.182;2023-02-11T06:12:24;22.35;;;15.00;;
41903;SDS011;27586;51.124;4.182;2023-02-11T06:14:51;26.60;;;16.65;;
41903;SDS011;27586;51.124;4.182;2023-02-11T06:17:17;23.10;;;17.92;;
41903;SDS011;27586;51.124;4.182;2023-02-11T06:19:42;23.83;;;16.80;;
41903;SDS011;27586;51.124;4.182;2023-02-11T06:22:08;24.63;;;15.55;;
41903;SDS011;27586;51.124;4.182;2023-02-11T06:24:34;29.23;;;16.67;;
41903;SDS011;27586;51.124;4.182;2023-02-11T06:27:01;28.17;;;18.90;;
41903;SDS011;27586;51.124;4.182;2023-02-11T06:29:28;23.98;;;17.33;;
41903;SDS011;27586;51.124;4.182;2023-02-11T06:31:53;22.10;;;14.88;;
41903;SDS011;27586;51.124;4.182;2023-02-11T06:34:19;19.98;;;17.45;;
41903;SDS011;27586;51.124;4.182;2023-02-11T06:36:44;25.17;;;18.42;;
41903;SDS011;27586;51.124;4.182;2023-02-11T06:39:11;22.90;;;15.82;;
41903;SDS011;27586;51.124;4.182;2023-02-11T06:41:37;25.95;;;18.15;;
41903;SDS011;27586;51.124;4.182;2023-02-11T06:44:03;24.55;;;15.48;;
41903;SDS011;27586;51.124;4.182;2023-02-11T06:46:29;23.75;;;15.25;;
41903;SDS011;27586;51.124;4.182;2023-02-11T06:48:54;21.80;;;14.98;;
41903;SDS011;27586;51.124;4.182;2023-02-11T06:51:20;25.08;;;16.48;;
41903;SDS011;27586;51.124;4.182;2023-02-11T06:53:47;23.60;;;16.30;;
41903;SDS011;27586;51.124;4.182;2023-02-11T06:56:17;24.70;;;16.02;;
41903;SDS011;27586;51.124;4.182;2023-02-11T06:58:45;24.48;;;16.83;;
41903;SDS011;27586;51.124;4.182;2023-02-11T07:01:12;25.30;;;17.33;;
41903;SDS011;27586;51.124;4.182;2023-02-11T07:03:40;22.55;;;17.20;;
41903;SDS011;27586;51.124;4.182;2023-02-11T07:06:09;30.67;;;15.75;;
41903;SDS011;27586;51.124;4.182;2023-02-11T07:08:36;24.67;;;15.73;;
41903;SDS011;27586;51.124;4.182;2023-02-11T07:11:10;23.00;;;16.27;;
41903;SDS011;27586;51.124;4.182;2023-02-11T07:13:37;24.77;;;16.15;;
41903;SDS011;27586;51.124;4.182;2023-02-11T07:16:04;22.92;;;16.23;;
41903;SDS011;27586;51.124;4.182;2023-02-11T07:18:32;20.15;;;16.13;;
41903;SDS011;27586;51.124;4.182;2023-02-11T07:20:58;22.95;;;15.98;;
41903;SDS011;27586;51.124;4.182;2023-02-11T07:23:23;26.15;;;16.80;;
41903;SDS011;27586;51.124;4.182;2023-02-11T07:25:49;24.92;;;16.83;;
41903;SDS011;27586;51.124;4.182;2023-02-11T07:28:15;21.58;;;18.25;;
41903;SDS011;27586;51.124;4.182;2023-02-11T07:30:40;26.33;;;17.20;;
41903;SDS011;27586;51.124;4.182;2023-02-11T07:33:06;22.77;;;18.38;;
41903;SDS011;27586;51.124;4.182;2023-02-11T07:35:32;23.70;;;16.75;;
41903;SDS011;27586;51.124;4.182;2023-02-11T07:37:57;25.65;;;19.27;;
41903;SDS011;27586;51.124;4.182;2023-02-11T07:40:23;25.42;;;19.95;;
41903;SDS011;27586;51.124;4.182;2023-02-11T07:42:48;26.83;;;19.52;;
41903;SDS011;27586;51.124;4.182;2023-02-11T07:45:14;28.15;;;18.30;;
41903;SDS011;27586;51.124;4.182;2023-02-11T07:47:40;24.38;;;19.70;;
41903;SDS011;27586;51.124;4.182;2023-02-11T07:50:06;27.30;;;20.17;;
41903;SDS011;27586;51.124;4.182;2023-02-11T07:52:33;26.55;;;18.45;;
41903;SDS011;27586;51.124;4.182;2023-02-11T07:54:59;27.38;;;20.98;;
41903;SDS011;27586;51.124;4.182;2023-02-11T07:57:24;24.58;;;21.25;;
41903;SDS011;27586;51.124;4.182;2023-02-11T07:59:50;25.13;;;20.50;;
41903;SDS011;27586;51.124;4.182;2023-02-11T08:02:16;28.73;;;18.45;;
41903;SDS011;27586;51.124;4.182;2023-02-11T08:04:44;22.33;;;19.92;;
41903;SDS011;27586;51.124;4.182;2023-02-11T08:07:13;25.60;;;19.90;;
41903;SDS011;27586;51.124;4.182;2023-02-11T08:09:39;24.10;;;19.80;;
41903;SDS011;27586;51.124;4.182;2023-02-11T08:12:05;28.70;;;20.42;;
41903;SDS011;27586;51.124;4.182;2023-02-11T08:14:31;25.50;;;17.80;;
41903;SDS011;27586;51.124;4.182;2023-02-11T08:16:57;24.58;;;17.90;;
41903;SDS011;27586;51.124;4.182;2023-02-11T08:19:22;24.83;;;19.55;;
41903;SDS011;27586;51.124;4.182;2023-02-11T08:21:48;23.40;;;18.92;;
41903;SDS011;27586;51.124;4.182;2023-02-11T08:24:14;25.20;;;20.02;;
41903;SDS011;27586;51.124;4.182;2023-02-11T08:26:40;22.40;;;19.55;;
41903;SDS011;27586;51.124;4.182;2023-02-11T08:29:07;23.05;;;18.80;;
41903;SDS011;27586;51.124;4.182;2023-02-11T08:31:35;24.95;;;19.90;;
41903;SDS011;27586;51.124;4.182;2023-02-11T08:34:03;22.38;;;19.92;;
41903;SDS011;27586;51.124;4.182;2023-02-11T08:36:30;25.73;;;17.70;;
41903;SDS011;27586;51.124;4.182;2023-02-11T08:38:58;27.75;;;19.80;;
41903;SDS011;27586;51.124;4.182;2023-02-11T08:41:29;23.13;;;19.35;;
41903;SDS011;27586;51.124;4.182;2023-02-11T08:43:56;25.30;;;20.10;;
41903;SDS011;27586;51.124;4.182;2023-02-11T08:46:22;28.30;;;20.73;;
41903;SDS011;27586;51.124;4.182;2023-02-11T08:48:47;31.15;;;21.63;;
41903;SDS011;27586;51.124;4.182;2023-02-11T08:51:14;27.52;;;22.25;;
41903;SDS011;27586;51.124;4.182;2023-02-11T08:53:42;24.27;;;21.50;;
41903;SDS011;27586;51.124;4.182;2023-02-11T08:56:09;26.40;;;22.15;;
41903;SDS011;27586;51.124;4.182;2023-02-11T08:58:36;25.45;;;22.20;;
41903;SDS011;27586;51.124;4.182;2023-02-11T09:01:07;25.42;;;21.80;;
41903;SDS011;27586;51.124;4.182;2023-02-11T09:03:34;29.65;;;23.20;;
41903;SDS011;27586;51.124;4.182;2023-02-11T09:06:02;29.20;;;22.05;;
41903;SDS011;27586;51.124;4.182;2023-02-11T09:08:29;28.73;;;23.05;;
41903;SDS011;27586;51.124;4.182;2023-02-11T09:10:55;31.77;;;22.52;;
41903;SDS011;27586;51.124;4.182;2023-02-11T09:13:21;26.20;;;22.50;;
41903;SDS011;27586;51.124;4.182;2023-02-11T09:15:47;31.80;;;23.13;;
41903;SDS011;27586;51.124;4.182;2023-02-11T09:18:13;29.58;;;23.80;;
41903;SDS011;27586;51.124;4.182;2023-02-11T09:20:38;30.73;;;23.23;;
41903;SDS011;27586;51.124;4.182;2023-02-11T09:23:04;26.85;;;22.30;;
41903;SDS011;27586;51.124;4.182;2023-02-11T09:25:30;26.60;;;23.05;;
41903;SDS011;27586;51.124;4.182;2023-02-11T09:27:55;31.35;;;23.20;;
41903;SDS011;27586;51.124;4.182;2023-02-11T09:30:21;28.50;;;23.83;;
41903;SDS011;27586;51.124;4.182;2023-02-11T09:32:47;29.67;;;23.83;;
41903;SDS011;27586;51.124;4.182;2023-02-11T09:35:12;30.52;;;23.75;;
41903;SDS011;27586;51.124;4.182;2023-02-11T09:37:38;29.58;;;24.35;;
41903;SDS011;27586;51.124;4.182;2023-02-11T09:40:04;30.38;;;25.60;;
41903;SDS011;27586;51.124;4.182;2023-02-11T09:42:38;32.03;;;25.27;;
41903;SDS011;27586;51.124;4.182;2023-02-11T09:45:36;27.48;;;24.55;;
41903;SDS011;27586;51.124;4.182;2023-02-11T09:48:13;30.75;;;25.52;;
41903;SDS011;27586;51.124;4.182;2023-02-11T09:50:47;32.90;;;26.50;;
41903;SDS011;27586;51.124;4.182;2023-02-11T09:55:46;30.48;;;25.63;;
41903;SDS011;27586;51.124;4.182;2023-02-11T09:58:22;28.98;;;25.38;;
41903;SDS011;27586;51.124;4.182;2023-02-11T10:22:11;32.08;;;28.20;;
41903;SDS011;27586;51.124;4.182;2023-02-11T10:24:53;32.03;;;28.58;;
41903;SDS011;27586;51.124;4.182;2023-02-11T10:27:30;33.25;;;28.23;;
41903;SDS011;27586;51.124;4.182;2023-02-11T10:30:05;34.78;;;29.48;;
41903;SDS011;27586;51.124;4.182;2023-02-11T10:35:26;38.88;;;30.80;;
41903;SDS011;27586;51.124;4.182;2023-02-11T10:37:53;34.25;;;30.58;;
41903;SDS011;27586;51.124;4.182;2023-02-11T10:40:23;36.13;;;30.63;;
41903;SDS011;27586;51.124;4.182;2023-02-11T10:42:52;36.60;;;31.52;;
41903;SDS011;27586;51.124;4.182;2023-02-11T10:47:51;35.35;;;31.52;;
41903;SDS011;27586;51.124;4.182;2023-02-11T10:50:20;38.22;;;31.45;;
41903;SDS011;27586;51.124;4.182;2023-02-11T10:52:46;37.35;;;31.35;;
41903;SDS011;27586;51.124;4.182;2023-02-11T10:55:20;38.17;;;31.83;;
41903;SDS011;27586;51.124;4.182;2023-02-11T10:57:56;35.78;;;31.90;;
41903;SDS011;27586;51.124;4.182;2023-02-11T11:00:32;39.10;;;33.30;;
41903;SDS011;27586;51.124;4.182;2023-02-11T11:03:14;36.40;;;30.00;;
41903;SDS011;27586;51.124;4.182;2023-02-11T11:05:50;34.40;;;29.33;;
41903;SDS011;27586;51.124;4.182;2023-02-11T11:11:09;31.42;;;28.05;;
41903;SDS011;27586;51.124;4.182;2023-02-11T11:14:03;34.50;;;28.45;;
41903;SDS011;27586;51.124;4.182;2023-02-11T11:16:29;31.83;;;28.00;;
41903;SDS011;27586;51.124;4.182;2023-02-11T11:24:32;31.05;;;27.67;;
41903;SDS011;27586;51.124;4.182;2023-02-11T11:27:14;32.47;;;28.60;;
41903;SDS011;27586;51.124;4.182;2023-02-11T11:29:53;33.85;;;27.77;;
41903;SDS011;27586;51.124;4.182;2023-02-11T11:32:24;32.03;;;27.92;;
41903;SDS011;27586;51.124;4.182;2023-02-11T11:34:58;31.52;;;28.30;;
41903;SDS011;27586;51.124;4.182;2023-02-11T11:37:33;30.35;;;26.98;;
41903;SDS011;27586;51.124;4.182;2023-02-11T11:43:04;30.58;;;27.38;;
41903;SDS011;27586;51.124;4.182;2023-02-11T11:45:40;29.58;;;26.58;;
41903;SDS011;27586;51.124;4.182;2023-02-11T11:48:20;30.52;;;27.17;;
41903;SDS011;27586;51.124;4.182;2023-02-11T11:51:00;29.35;;;26.17;;
41903;SDS011;27586;51.124;4.182;2023-02-11T11:56:25;28.88;;;25.77;;
41903;SDS011;27586;51.124;4.182;2023-02-11T11:58:58;28.85;;;25.08;;
41903;SDS011;27586;51.124;4.182;2023-02-11T12:07:19;28.92;;;25.27;;
41903;SDS011;27586;51.124;4.182;2023-02-11T12:21:10;26.55;;;23.67;;
41903;SDS011;27586;51.124;4.182;2023-02-11T12:41:43;26.50;;;23.70;;
41903;SDS011;27586;51.124;4.182;2023-02-11T12:50:35;29.55;;;24.45;;
41903;SDS011;27586;51.124;4.182;2023-02-11T12:56:18;27.58;;;24.17;;
41903;SDS011;27586;51.124;4.182;2023-02-11T12:58:51;27.23;;;23.95;;
41903;SDS011;27586;51.124;4.182;2023-02-11T13:01:21;26.65;;;23.85;;
41903;SDS011;27586;51.124;4.182;2023-02-11T13:07:00;27.33;;;24.20;;
41903;SDS011;27586;51.124;4.182;2023-02-11T13:09:43;26.63;;;23.73;;
41903;SDS011;27586;51.124;4.182;2023-02-11T13:12:15;31.60;;;25.35;;
41903;SDS011;27586;51.124;4.182;2023-02-11T13:15:05;28.30;;;23.70;;
41903;SDS011;27586;51.124;4.182;2023-02-11T13:17:40;26.45;;;23.40;;
41903;SDS011;27586;51.124;4.182;2023-02-11T13:20:24;27.25;;;24.27;;
41903;SDS011;27586;51.124;4.182;2023-02-11T13:22:57;30.60;;;25.48;;
41903;SDS011;27586;51.124;4.182;2023-02-11T13:25:49;29.02;;;25.08;;
41903;SDS011;27586;51.124;4.182;2023-02-11T13:31:10;30.45;;;26.27;;
41903;SDS011;27586;51.124;4.182;2023-02-11T13:33:40;31.83;;;26.73;;
41903;SDS011;27586;51.124;4.182;2023-02-11T13:38:34;30.00;;;25.77;;
41903;SDS011;27586;51.124;4.182;2023-02-11T13:41:02;30.15;;;26.25;;
41903;SDS011;27586;51.124;4.182;2023-02-11T13:43:29;29.58;;;25.98;;
41903;SDS011;27586;51.124;4.182;2023-02-11T13:46:01;31.20;;;27.77;;
41903;SDS011;27586;51.124;4.182;2023-02-11T13:48:30;32.55;;;27.15;;
41903;SDS011;27586;51.124;4.182;2023-02-11T13:50:58;30.65;;;26.15;;
41903;SDS011;27586;51.124;4.182;2023-02-11T13:53:27;34.45;;;26.67;;
41903;SDS011;27586;51.124;4.182;2023-02-11T13:56:39;30.23;;;26.20;;
41903;SDS011;27586;51.124;4.182;2023-02-11T13:58:49;29.17;;;25.30;;
41903;SDS011;27586;51.124;4.182;2023-02-11T14:10:53;29.63;;;25.00;;
41903;SDS011;27586;51.124;4.182;2023-02-11T14:13:24;31.33;;;25.90;;
41903;SDS011;27586;51.124;4.182;2023-02-11T14:16:03;29.23;;;26.17;;
41903;SDS011;27586;51.124;4.182;2023-02-11T14:21:11;28.48;;;25.40;;
41903;SDS011;27586;51.124;4.182;2023-02-11T14:23:40;31.58;;;26.88;;
41903;SDS011;27586;51.124;4.182;2023-02-11T14:28:43;29.10;;;25.98;;
41903;SDS011;27586;51.124;4.182;2023-02-11T14:31:34;31.52;;;26.63;;
41903;SDS011;27586;51.124;4.182;2023-02-11T14:36:50;28.42;;;25.30;;
41903;SDS011;27586;51.124;4.182;2023-02-11T14:41:45;30.10;;;25.50;;
41903;SDS011;27586;51.124;4.182;2023-02-11T14:44:15;30.55;;;26.52;;
41903;SDS011;27586;51.124;4.182;2023-02-11T14:46:46;28.40;;;25.17;;
41903;SDS011;27586;51.124;4.182;2023-02-11T14:49:24;29.15;;;26.10;;
41903;SDS011;27586;51.124;4.182;2023-02-11T14:51:57;29.08;;;25.95;;
41903;SDS011;27586;51.124;4.182;2023-02-11T14:54:29;29.30;;;26.20;;
41903;SDS011;27586;51.124;4.182;2023-02-11T14:57:11;29.05;;;25.08;;
41903;SDS011;27586;51.124;4.182;2023-02-11T14:59:39;28.83;;;25.58;;
41903;SDS011;27586;51.124;4.182;2023-02-11T15:02:20;29.52;;;25.75;;
41903;SDS011;27586;51.124;4.182;2023-02-11T15:04:47;30.83;;;27.48;;
41903;SDS011;27586;51.124;4.182;2023-02-11T15:07:13;29.77;;;26.15;;
41903;SDS011;27586;51.124;4.182;2023-02-11T15:09:41;31.65;;;26.85;;
41903;SDS011;27586;51.124;4.182;2023-02-11T15:12:18;29.95;;;26.30;;
41903;SDS011;27586;51.124;4.182;2023-02-11T15:14:53;28.92;;;25.83;;
41903;SDS011;27586;51.124;4.182;2023-02-11T15:17:22;28.50;;;25.52;;
41903;SDS011;27586;51.124;4.182;2023-02-11T15:19:55;28.52;;;24.73;;
41903;SDS011;27586;51.124;4.182;2023-02-11T15:22:29;29.80;;;25.35;;
41903;SDS011;27586;51.124;4.182;2023-02-11T15:27:23;28.02;;;25.10;;
41903;SDS011;27586;51.124;4.182;2023-02-11T15:29:50;27.92;;;25.05;;
41903;SDS011;27586;51.124;4.182;2023-02-11T15:32:19;28.02;;;24.50;;
41903;SDS011;27586;51.124;4.182;2023-02-11T15:34:47;28.63;;;24.90;;
41903;SDS011;27586;51.124;4.182;2023-02-11T15:37:24;27.83;;;24.70;;
41903;SDS011;27586;51.124;4.182;2023-02-11T15:39:52;28.33;;;24.15;;
41903;SDS011;27586;51.124;4.182;2023-02-11T15:44:46;27.05;;;24.15;;
41903;SDS011;27586;51.124;4.182;2023-02-11T15:47:19;28.13;;;24.38;;
41903;SDS011;27586;51.124;4.182;2023-02-11T15:49:46;27.42;;;23.77;;
41903;SDS011;27586;51.124;4.182;2023-02-11T15:52:14;27.20;;;23.92;;
41903;SDS011;27586;51.124;4.182;2023-02-11T15:54:47;28.67;;;24.38;;
41903;SDS011;27586;51.124;4.182;2023-02-11T15:57:13;26.02;;;23.23;;
41903;SDS011;27586;51.124;4.182;2023-02-11T15:59:44;28.23;;;25.25;;
41903;SDS011;27586;51.124;4.182;2023-02-11T16:02:16;27.98;;;24.90;;
41903;SDS011;27586;51.124;4.182;2023-02-11T16:04:53;28.05;;;24.38;;
41903;SDS011;27586;51.124;4.182;2023-02-11T16:07:39;30.52;;;24.42;;
41903;SDS011;27586;51.124;4.182;2023-02-11T16:10:20;27.13;;;24.25;;
41903;SDS011;27586;51.124;4.182;2023-02-11T16:12:54;27.42;;;23.38;;
41903;SDS011;27586;51.124;4.182;2023-02-11T16:17:57;26.40;;;23.40;;
41903;SDS011;27586;51.124;4.182;2023-02-11T16:20:28;25.85;;;23.08;;
41903;SDS011;27586;51.124;4.182;2023-02-11T16:22:54;27.52;;;24.33;;
41903;SDS011;27586;51.124;4.182;2023-02-11T16:25:20;26.30;;;23.15;;
41903;SDS011;27586;51.124;4.182;2023-02-11T16:27:47;26.60;;;23.75;;
41903;SDS011;27586;51.124;4.182;2023-02-11T16:30:38;27.88;;;23.77;;
41903;SDS011;27586;51.124;4.182;2023-02-11T16:33:02;27.58;;;24.42;;
41903;SDS011;27586;51.124;4.182;2023-02-11T16:35:29;32.55;;;29.05;;
41903;SDS011;27586;51.124;4.182;2023-02-11T16:37:55;30.45;;;27.25;;
41903;SDS011;27586;51.124;4.182;2023-02-11T16:40:21;32.60;;;28.50;;
41903;SDS011;27586;51.124;4.182;2023-02-11T16:42:49;28.98;;;25.88;;
41903;SDS011;27586;51.124;4.182;2023-02-11T16:45:17;30.92;;;27.63;;
41903;SDS011;27586;51.124;4.182;2023-02-11T16:47:43;29.15;;;25.75;;
41903;SDS011;27586;51.124;4.182;2023-02-11T16:50:10;28.83;;;25.83;;
41903;SDS011;27586;51.124;4.182;2023-02-11T16:52:43;27.88;;;24.88;;
41903;SDS011;27586;51.124;4.182;2023-02-11T16:55:11;29.92;;;26.83;;
41903;SDS011;27586;51.124;4.182;2023-02-11T16:57:37;30.02;;;26.75;;
41903;SDS011;27586;51.124;4.182;2023-02-11T17:00:03;28.73;;;25.00;;
41903;SDS011;27586;51.124;4.182;2023-02-11T17:02:33;30.13;;;26.08;;
41903;SDS011;27586;51.124;4.182;2023-02-11T17:05:01;29.95;;;26.48;;
41903;SDS011;27586;51.124;4.182;2023-02-11T17:07:32;28.67;;;25.58;;
41903;SDS011;27586;51.124;4.182;2023-02-11T17:09:58;29.08;;;25.98;;
41903;SDS011;27586;51.124;4.182;2023-02-11T17:12:24;30.73;;;26.70;;
41903;SDS011;27586;51.124;4.182;2023-02-11T17:14:50;31.00;;;27.08;;
41903;SDS011;27586;51.124;4.182;2023-02-11T17:17:16;30.27;;;26.92;;
41903;SDS011;27586;51.124;4.182;2023-02-11T17:19:42;31.48;;;28.08;;
41903;SDS011;27586;51.124;4.182;2023-02-11T17:22:09;31.65;;;28.40;;
41903;SDS011;27586;51.124;4.182;2023-02-11T17:24:35;30.20;;;27.10;;
41903;SDS011;27586;51.124;4.182;2023-02-11T17:27:01;32.05;;;28.25;;
41903;SDS011;27586;51.124;4.182;2023-02-11T17:29:27;32.30;;;28.63;;